Meteorología y climatología de Navarra
Datos de la estación - Meteo Navarra

Estación de Bera (Larrategaña) GN

Altitud 306 m.


Datos desde el 09/11/2019 hasta el 10/11/2019 en horario solar
Los datos son PROVISIONALES

Anterior Página 1 de 1 Siguiente Descargar: Formato para Excel 2000 o superior   Formato csv   Formato para OpenOffice Calc
Fecha Temperatura Humedad relativa Radiación global Insolación Precipitación Vel. viento 10 m Vel. viento 10 m Dir. viento 10 m
ºC % W/m² s l/m² m/s km/h º
09/11/2019 0:00 9.1 87 0.0 0 0.0 2.8 10.2 279
09/11/2019 0:10 9.1 89 0.0 0 0.0 1.6 5.9 254
09/11/2019 0:20 9.0 89 0.0 0 0.0 2.9 10.5 259
09/11/2019 0:30 9.1 89 0.0 0 0.1 2.1 7.5 277
09/11/2019 0:40 9.1 89 0.0 0 2.6 2.0 7.1 306
09/11/2019 0:50 8.8 92 0.0 0 0.0 2.5 9.0 288
09/11/2019 1:00 8.7 91 0.0 0 0.0 1.6 5.6 237
09/11/2019 1:10 8.4 87 0.0 0 0.0 1.6 5.6 291
09/11/2019 1:20 8.3 85 0.0 0 0.0 1.0 3.6 50
09/11/2019 1:30 8.2 86 0.0 0 1.1 2.1 7.4 263
09/11/2019 1:40 7.5 91 0.0 0 0.5 1.6 5.7 224
09/11/2019 1:50 7.3 94 0.0 0 0.1 1.9 7.0 233
09/11/2019 2:00 7.3 95 0.0 0 0.1 1.7 6.0 230
09/11/2019 2:10 7.5 93 0.0 0 0.1 0.8 2.7 159
09/11/2019 2:20 7.6 93 0.0 0 0.3 1.2 4.1 220
09/11/2019 2:30 7.8 91 0.0 0 0.0 1.4 4.9 212
09/11/2019 2:40 7.7 92 0.0 0 0.1 1.1 4.1 167
09/11/2019 2:50 7.9 90 0.0 0 0.0 1.2 4.3 197
09/11/2019 3:00 8.1 88 0.0 0 0.0 1.3 4.5 206
09/11/2019 3:10 8.0 91 0.0 0 1.1 2.0 7.3 1
09/11/2019 3:20 7.5 95 0.0 0 0.0 2.0 7.3 27
09/11/2019 3:30 7.6 94 0.0 0 0.0 2.5 9.0 24
09/11/2019 3:40 8.1 91 0.0 0 0.0 2.5 9.0 330
09/11/2019 3:50 8.3 91 0.0 0 0.0 1.3 4.7 302
09/11/2019 4:00 7.8 92 0.0 0 0.0 1.2 4.3 238
09/11/2019 4:10 8.0 92 0.0 0 0.0 0.8 2.9 268
09/11/2019 4:20 8.1 91 0.0 0 0.0 1.0 3.4 289
09/11/2019 4:30 8.4 89 0.0 0 0.0 1.3 4.8 305
09/11/2019 4:40 8.7 88 0.0 0 0.7 1.4 5.2 307
09/11/2019 4:50 8.5 90 0.0 0 1.5 1.5 5.3 328
09/11/2019 5:00 7.9 94 0.0 0 0.0 1.5 5.4 262
09/11/2019 5:10 7.6 96 0.0 0 0.0 1.2 4.2 245
09/11/2019 5:20 7.6 96 0.0 0 0.0 1.5 5.5 213
09/11/2019 5:30 7.5 97 0.0 0 0.0 1.2 4.5 207
09/11/2019 5:40 7.5 97 0.0 0 0.0 1.9 6.9 212
09/11/2019 5:50 7.4 98 0.0 0 0.0 2.4 8.7 202
09/11/2019 6:00 7.5 98 0.0 0 0.0 2.7 9.6 187
09/11/2019 6:10 7.6 97 0.0 0 0.0 2.4 8.7 195
09/11/2019 6:20 7.5 97 0.0 0 0.3 1.4 5.2 255
09/11/2019 6:30 7.7 96 0.0 0 1.7 1.2 4.4 261
09/11/2019 6:40 8.0 94 0.0 0 0.0 0.9 3.1 252
09/11/2019 6:50 8.0 95 0.0 0 0.3 0.6 2.0 73
09/11/2019 7:00 8.1 95 0.0 0 0.0 1.0 3.5 178
09/11/2019 7:10 7.8 97 0.0 0 0.1 1.9 6.9 224
09/11/2019 7:20 7.5 98 0.0 0 0.1 1.8 6.3 228
09/11/2019 7:30 7.6 99 0.0 0 1.3 1.7 6.0 261
09/11/2019 7:40 7.6 99 0.0 0 1.1 0.3 1.1 303
09/11/2019 7:50 7.7 99 0.1 0 1.1 0.4 1.5 118
09/11/2019 8:00 7.7 99 21.6 0 0.3 1.1 4.0 166
09/11/2019 8:10 7.7 99 30.8 0 0.1 1.6 5.8 219
09/11/2019 8:20 7.8 99 36.8 0 0.0 1.1 3.9 201
09/11/2019 8:30 7.8 99 43.6 0 0.0 1.4 5.0 224
09/11/2019 8:40 7.9 99 67.3 0 0.0 1.7 6.1 210
09/11/2019 8:50 8.0 100 65.6 0 0.0 1.7 6.1 202
09/11/2019 9:00 8.1 100 90.6 0 0.1 2.5 8.8 208
09/11/2019 9:10 8.1 99 93.4 0 0.0 2.5 9.1 215
09/11/2019 9:20 8.0 99 95.5 0 0.0 2.8 10.0 220
09/11/2019 9:30 8.1 99 110.7 0 0.0 3.6 13.0 213
09/11/2019 9:40 8.2 99 148.5 0 0.0 2.7 9.6 219
09/11/2019 9:50 8.4 99 146.2 0 0.0 2.9 10.4 208
09/11/2019 10:00 8.5 98 149.8 0 0.0 3.5 12.6 216
09/11/2019 10:10 8.5 97 128.1 0 0.0 3.8 13.7 208
09/11/2019 10:20 8.6 97 130.6 0 0.0 3.5 12.5 213
09/11/2019 10:30 8.8 96 168.2 0 0.0 2.7 9.8 207
09/11/2019 10:40 9.1 96 223.4 66 0.0 2.5 8.9 208
09/11/2019 10:50 9.2 94 284.0 300 0.0 2.7 9.8 214
09/11/2019 11:00 9.4 94 284.0 466 0.0 1.8 6.5 201
09/11/2019 11:10 9.8 91 226.0 0 0.0 2.1 7.6 202
09/11/2019 11:20 9.8 92 180.2 0 0.0 2.3 8.2 215
09/11/2019 11:30 9.8 92 141.0 0 0.0 2.2 7.9 208
09/11/2019 11:40 9.8 91 142.4 0 0.0 2.6 9.3 205
09/11/2019 11:50 9.8 91 234.4 132 0.0 2.8 10.0 222
09/11/2019 12:00 10.1 92 326.5 600 0.0 2.9 10.3 218
09/11/2019 12:10 10.1 90 216.3 92 0.0 3.4 12.3 215
09/11/2019 12:20 10.1 89 166.3 0 0.0 3.1 11.1 210
09/11/2019 12:30 10.1 90 182.1 0 0.0 3.7 13.2 215
09/11/2019 12:40 10.0 89 168.3 0 0.1 3.9 13.9 212
09/11/2019 12:50 10.3 87 272.8 350 0.0 4.2 15.0 220
09/11/2019 13:00 10.2 87 211.8 0 0.0 3.9 13.9 216
09/11/2019 13:10 10.3 83 216.7 0 0.0 4.6 16.7 212
09/11/2019 13:20 10.3 82 186.7 0 0.0 4.7 17.0 207
09/11/2019 13:30 10.1 80 77.0 0 0.0 4.9 17.6 199
09/11/2019 13:40 10.0 79 43.5 0 0.0 5.1 18.3 213
09/11/2019 13:50 9.7 81 5.3 0 0.4 4.6 16.7 210
09/11/2019 14:00 9.1 86 31.5 0 1.0 4.0 14.2 178
09/11/2019 14:10 8.9 88 55.1 0 0.1 4.1 14.6 205
09/11/2019 14:20 9.0 88 36.5 0 0.2 4.4 15.9 211
09/11/2019 14:30 8.9 88 31.3 0 0.2 4.6 16.5 213
09/11/2019 14:40 8.9 89 31.0 0 0.3 5.4 19.4 209
09/11/2019 14:50 8.5 94 22.7 0 0.4 4.2 15.3 210
09/11/2019 15:00 8.3 96 29.6 0 0.1 3.6 13.1 207
09/11/2019 15:10 8.3 96 11.8 0 0.0 4.0 14.4 206
09/11/2019 15:20 8.3 97 8.4 0 0.1 2.6 9.4 207
09/11/2019 15:30 8.4 97 13.9 0 0.2 2.5 9.0 210
09/11/2019 15:40 8.5 97 12.5 0 0.1 2.5 8.9 233
09/11/2019 15:50 9.8 92 29.6 0 0.1 5.6 20.1 251
09/11/2019 16:00 10.9 84 33.6 0 0.0 6.2 22.1 247
09/11/2019 16:10 11.5 80 23.3 0 0.0 5.5 19.9 262
09/11/2019 16:20 11.6 80 7.7 0 0.0 4.2 15.1 248
09/11/2019 16:30 11.4 81 15.4 0 0.0 4.5 16.0 265
09/11/2019 16:40 11.5 80 0.0 0 0.0 3.8 13.7 265
09/11/2019 16:50 11.7 78 0.0 0 0.0 4.7 16.7 252
09/11/2019 17:00 11.7 79 0.0 0 0.1 5.5 19.7 246
09/11/2019 17:10 11.2 84 0.0 0 1.3 2.5 9.1 287
09/11/2019 17:20 10.5 86 0.0 0 0.1 2.5 8.9 247
09/11/2019 17:30 10.6 83 0.0 0 0.1 4.8 17.1 243
09/11/2019 17:40 10.7 82 0.0 0 0.0 5.2 18.7 249
09/11/2019 17:50 10.8 82 0.0 0 0.0 6.4 23.0 254
09/11/2019 18:00 10.7 82 0.0 0 0.4 5.3 19.2 265
09/11/2019 18:10 10.0 87 0.0 0 1.0 3.1 11.3 270
09/11/2019 18:20 9.7 91 0.0 0 0.1 1.5 5.4 291
09/11/2019 18:30 9.5 92 0.0 0 0.1 3.0 10.9 239
09/11/2019 18:40 9.6 90 0.0 0 1.2 4.0 14.3 256
09/11/2019 18:50 9.0 92 0.0 0 3.3 4.0 14.5 300
09/11/2019 19:00 8.8 88 0.0 0 1.3 4.1 14.8 247
09/11/2019 19:10 8.7 88 0.0 0 2.0 5.7 20.4 259
09/11/2019 19:20 8.3 90 0.0 0 1.4 4.2 15.0 265
09/11/2019 19:30 7.8 91 0.0 0 1.3 3.8 13.8 260
09/11/2019 19:40 7.7 92 0.0 0 1.4 2.2 7.8 258
09/11/2019 19:50 7.7 93 0.0 0 1.4 2.9 10.4 246
09/11/2019 20:00 7.8 92 0.0 0 0.7 4.2 15.1 261
09/11/2019 20:10 7.7 93 0.0 0 0.3 2.4 8.7 260
09/11/2019 20:20 8.0 93 0.0 0 0.1 2.3 8.2 240
09/11/2019 20:30 8.1 91 0.0 0 0.0 2.9 10.5 237
09/11/2019 20:40 8.0 93 0.0 0 0.5 2.1 7.5 237
09/11/2019 20:50 7.8 94 0.0 0 1.6 3.6 12.8 237
09/11/2019 21:00 8.0 90 0.0 0 1.1 4.4 16.0 245
09/11/2019 21:10 8.2 88 0.0 0 0.1 3.2 11.6 264
09/11/2019 21:20 7.8 91 0.0 0 2.1 2.5 8.9 357
09/11/2019 21:30 7.3 96 0.0 0 0.4 2.4 8.5 268
09/11/2019 21:40 7.3 93 0.0 0 0.2 3.0 10.9 238
09/11/2019 21:50 7.3 91 0.0 0 0.1 1.3 4.7 234
09/11/2019 22:00 7.1 92 0.0 0 0.0 2.5 9.0 221
09/11/2019 22:10 6.7 95 0.0 0 0.0 2.6 9.3 230
09/11/2019 22:20 6.5 95 0.0 0 0.0 2.8 10.1 236
09/11/2019 22:30 6.8 93 0.0 0 0.0 2.3 8.3 224
09/11/2019 22:40 7.1 90 0.0 0 0.0 2.3 8.4 236
09/11/2019 22:50 7.2 90 0.0 0 0.0 1.4 5.1 245
09/11/2019 23:00 7.1 92 0.0 0 3.4 2.6 9.3 82
09/11/2019 23:10 7.3 86 0.0 0 1.0 1.7 6.1 261
09/11/2019 23:20 7.4 87 0.0 0 0.1 1.1 3.9 213
09/11/2019 23:30 7.6 86 0.0 0 0.2 1.2 4.3 324
09/11/2019 23:40 7.4 90 0.0 0 0.1 2.9 10.5 30
09/11/2019 23:50 7.3 88 0.0 0 0.1 1.8 6.5 302
Anterior Página 1 de 1 Siguiente

NOTA: Tipo de datos según el color:
   - Valores diarios o 10 minutos correctos
   - Valores diarios calculados a partir de un número de datos 10 minutos menor que 144 y mayor que 120, o de un número de datos semihorarios menor que 48 y mayor que 40 (caso de las estaciones de Riegos de Navarra y del MARM)
   - Valores diez minutos estimados


Contacto        Enlaces        Aviso legal